Terminal Aerodrome Forecast
Issued by NWS Greer, SC

Home | Current Version | Previous Version | Text Only | Print | Product List | Glossary On
Versions: 1 2 3 4 5 6 7 8 9 10 11 12
000
FTUS42 KGSP 202300
TAFGSP
TAF
KGSP 202332Z 2100/2124 23004KT P6SM SCT120 BKN250
     FM211400 27005KT P6SM FEW250
     FM212100 30008KT P6SM SCT050=

USA.gov is the U.S. government's official web portal to all federal, state and local government web resources and services.